createdAt,value
2022-11-29T00:01:28.544Z,34.47
2022-11-29T00:03:55.112Z,33.20
2022-11-29T00:06:22.867Z,35.53
2022-11-29T00:08:49.373Z,36.83
2022-11-29T00:11:38.762Z,37.60
2022-11-29T00:14:05.867Z,36.83
2022-11-29T00:16:32.498Z,37.83
2022-11-29T00:18:58.991Z,38.30
2022-11-29T00:21:25.440Z,38.07
2022-11-29T00:23:51.961Z,39.23
2022-11-29T00:26:18.450Z,34.87
2022-11-29T00:28:45.027Z,35.90
2022-11-29T00:31:14.555Z,39.00
2022-11-29T00:33:41.131Z,37.43
2022-11-29T00:36:07.751Z,37.47
2022-11-29T00:38:34.182Z,35.67
2022-11-29T00:41:00.658Z,35.53
2022-11-29T00:43:27.165Z,36.77
2022-11-29T00:45:53.801Z,37.17
2022-11-29T00:48:20.411Z,35.37
2022-11-29T00:50:46.935Z,34.57
2022-11-29T00:53:13.614Z,37.87
2022-11-29T00:55:40.080Z,37.33
2022-11-29T00:58:06.636Z,37.00
2022-11-29T01:00:33.161Z,35.63
2022-11-29T01:02:59.678Z,34.70
2022-11-29T01:05:26.119Z,35.00
2022-11-29T01:07:52.648Z,35.10
2022-11-29T01:10:19.196Z,35.33
2022-11-29T01:12:45.841Z,35.00
2022-11-29T01:15:12.467Z,34.77
2022-11-29T01:17:39.145Z,36.17
2022-11-29T01:20:07.087Z,36.20
2022-11-29T01:22:36.687Z,35.93
2022-11-29T01:25:03.221Z,35.83
2022-11-29T01:27:29.746Z,35.60
2022-11-29T01:29:56.218Z,35.20
2022-11-29T01:32:22.788Z,36.47
2022-11-29T01:34:49.307Z,38.20
2022-11-29T01:37:15.745Z,38.63
2022-11-29T01:39:42.244Z,40.63
2022-11-29T01:42:12.155Z,39.33
2022-11-29T01:44:39.001Z,37.33
2022-11-29T01:47:05.537Z,37.07
2022-11-29T01:49:36.232Z,35.67
2022-11-29T01:52:04.171Z,39.97
2022-11-29T01:54:31.869Z,36.60
2022-11-29T01:56:58.329Z,38.13
2022-11-29T01:59:25.846Z,37.77
2022-11-29T02:01:52.326Z,37.50
2022-11-29T02:04:18.771Z,38.20
2022-11-29T02:06:45.314Z,35.70
2022-11-29T02:09:18.751Z,38.57
2022-11-29T02:11:48.266Z,36.10
2022-11-29T02:14:33.321Z,33.93
2022-11-29T02:17:18.911Z,34.77
2022-11-29T02:19:54.633Z,34.20
2022-11-29T02:22:23.445Z,36.03
2022-11-29T02:25:08.745Z,35.70
2022-11-29T02:27:37.912Z,33.73
2022-11-29T02:30:09.017Z,34.47
2022-11-29T02:32:50.826Z,33.67
2022-11-29T02:35:20.469Z,33.67
2022-11-29T02:38:05.781Z,33.83
2022-11-29T02:40:51.031Z,34.20
2022-11-29T02:43:20.674Z,33.10
2022-11-29T02:45:49.440Z,31.40
2022-11-29T02:48:25.081Z,33.93
2022-11-29T02:51:06.821Z,33.47
2022-11-29T02:53:36.196Z,34.73
2022-11-29T02:56:08.833Z,33.83
2022-11-29T02:58:42.362Z,34.53
2022-11-29T03:01:11.542Z,34.40
2022-11-29T03:03:43.660Z,36.50
2022-11-29T03:06:28.868Z,36.40
2022-11-29T03:09:13.528Z,38.03
2022-11-29T03:11:48.562Z,36.83
2022-11-29T03:14:17.755Z,35.87
2022-11-29T03:16:51.909Z,36.57
2022-11-29T03:19:21.415Z,35.93
2022-11-29T03:22:08.131Z,36.83
2022-11-29T03:24:54.811Z,35.50
2022-11-29T03:27:23.095Z,36.53
2022-11-29T03:30:08.685Z,39.07
2022-11-29T03:32:37.731Z,37.00
2022-11-29T03:35:04.252Z,37.20
2022-11-29T03:37:30.795Z,37.27
2022-11-29T03:40:02.528Z,35.73
2022-11-29T03:42:49.219Z,36.40
2022-11-29T03:45:24.009Z,37.47
2022-11-29T03:47:58.234Z,34.77
2022-11-29T03:50:26.203Z,39.77
2022-11-29T03:53:04.019Z,38.67
2022-11-29T03:55:32.322Z,37.17
2022-11-29T03:57:58.795Z,36.60
2022-11-29T04:00:25.391Z,43.87
2022-11-29T04:03:27.523Z,47.33
2022-11-29T04:06:12.905Z,39.10
2022-11-29T04:08:48.617Z,38.43
2022-11-29T04:11:18.274Z,39.27
2022-11-29T04:14:17.626Z,38.00
2022-11-29T04:16:47.256Z,36.90
2022-11-29T04:19:27.790Z,37.53
2022-11-29T04:22:00.421Z,33.33
2022-11-29T04:24:36.370Z,37.27
2022-11-29T04:27:18.248Z,37.87
2022-11-29T04:29:50.862Z,37.13
2022-11-29T04:32:20.390Z,37.57
2022-11-29T04:34:52.944Z,35.20
2022-11-29T04:37:19.473Z,35.73
2022-11-29T04:40:04.731Z,33.90
2022-11-29T04:42:37.340Z,34.50
2022-11-29T04:45:09.676Z,36.13
2022-11-29T04:47:39.182Z,37.87
2022-11-29T04:50:09.794Z,35.77
2022-11-29T04:52:58.669Z,37.60
2022-11-29T04:55:39.994Z,33.33
2022-11-29T04:58:09.481Z,31.93
2022-11-29T05:00:39.313Z,33.20
2022-11-29T05:03:14.500Z,33.47
2022-11-29T05:05:48.807Z,33.67
2022-11-29T05:08:15.207Z,33.17
2022-11-29T05:11:08.058Z,33.43
2022-11-29T05:13:39.250Z,35.47
2022-11-29T05:16:15.066Z,33.97
2022-11-29T05:18:41.506Z,36.83
2022-11-29T05:21:08.011Z,35.23
2022-11-29T05:23:40.871Z,38.87
2022-11-29T05:26:13.528Z,36.63
2022-11-29T05:28:45.376Z,36.73
2022-11-29T05:31:17.972Z,35.03
2022-11-29T05:33:53.637Z,36.27
2022-11-29T05:36:26.155Z,33.33
2022-11-29T05:38:55.724Z,35.07
2022-11-29T05:41:22.195Z,37.07
2022-11-29T05:44:07.656Z,36.63
2022-11-29T05:46:36.597Z,39.77
2022-11-29T05:49:03.723Z,38.20
2022-11-29T05:51:41.359Z,34.63
2022-11-29T05:54:46.873Z,36.60
2022-11-29T05:57:22.676Z,33.03
2022-11-29T05:59:49.318Z,39.17
2022-11-29T06:02:27.952Z,38.53
2022-11-29T06:04:57.675Z,38.67
2022-11-29T06:07:33.272Z,35.47
2022-11-29T06:10:02.152Z,37.13
2022-11-29T06:12:31.427Z,37.20
2022-11-29T06:15:00.425Z,36.27
2022-11-29T06:17:45.807Z,35.10
2022-11-29T06:20:27.247Z,36.50
2022-11-29T06:23:12.975Z,36.83
2022-11-29T06:25:39.806Z,35.17
2022-11-29T06:28:27.599Z,36.87
2022-11-29T06:31:03.575Z,38.30
2022-11-29T06:33:45.113Z,36.23
2022-11-29T06:36:30.324Z,34.67
2022-11-29T06:38:56.909Z,33.40
2022-11-29T06:41:23.576Z,33.93
2022-11-29T06:43:50.340Z,34.80
2022-11-29T06:46:23.304Z,37.63
2022-11-29T06:48:51.915Z,35.87
2022-11-29T06:51:22.293Z,34.50
2022-11-29T06:53:51.546Z,33.93
2022-11-29T06:56:18.040Z,31.67
2022-11-29T06:58:50.981Z,33.53
2022-11-29T07:01:26.508Z,31.73
2022-11-29T07:04:02.780Z,34.87
2022-11-29T07:06:29.349Z,37.17
2022-11-29T07:09:22.263Z,34.73
2022-11-29T07:11:48.958Z,35.63
2022-11-29T07:14:15.566Z,36.80
2022-11-29T07:16:42.207Z,37.43
2022-11-29T07:19:17.868Z,34.97
2022-11-29T07:21:44.465Z,37.23
2022-11-29T07:24:23.207Z,38.43
2022-11-29T07:26:49.755Z,36.13
2022-11-29T07:29:49.145Z,34.93
2022-11-29T07:32:18.455Z,35.50
2022-11-29T07:35:05.275Z,37.93
2022-11-29T07:38:04.312Z,36.83
2022-11-29T07:40:42.767Z,37.73
2022-11-29T07:43:09.275Z,39.00
2022-11-29T07:45:36.924Z,36.40
2022-11-29T07:48:03.707Z,39.90
2022-11-29T07:50:30.194Z,39.67
2022-11-29T07:52:56.835Z,42.03
2022-11-29T07:55:24.317Z,39.57
2022-11-29T07:57:50.866Z,38.97
2022-11-29T08:00:18.092Z,42.90
2022-11-29T08:02:44.585Z,39.90
2022-11-29T08:05:11.144Z,41.40
2022-11-29T08:07:38.049Z,42.73
2022-11-29T08:10:06.502Z,42.80
2022-11-29T08:12:33.148Z,44.00
2022-11-29T08:14:59.659Z,43.87
2022-11-29T08:17:26.239Z,40.67
2022-11-29T08:19:52.845Z,44.20
2022-11-29T08:22:19.354Z,44.40
2022-11-29T08:24:45.957Z,42.90
2022-11-29T08:27:12.659Z,43.40
2022-11-29T08:29:39.124Z,46.13
2022-11-29T08:32:06.445Z,46.83
2022-11-29T08:34:32.923Z,45.93
2022-11-29T08:36:59.378Z,44.80
2022-11-29T08:39:25.921Z,45.67
2022-11-29T08:41:52.481Z,46.27
2022-11-29T08:44:19.099Z,47.30
2022-11-29T08:47:04.179Z,46.87
2022-11-29T08:49:30.660Z,48.57
2022-11-29T08:52:17.077Z,45.60
2022-11-29T08:54:43.829Z,44.33
2022-11-29T08:57:38.440Z,47.77
2022-11-29T08:59:57.263Z,47.93
2022-11-29T09:02:23.773Z,51.03
2022-11-29T09:04:50.427Z,49.43
2022-11-29T09:07:16.990Z,47.53
2022-11-29T09:09:43.539Z,50.43
2022-11-29T09:12:10.030Z,50.87
2022-11-29T09:14:36.502Z,52.17
2022-11-29T09:17:02.972Z,51.90
2022-11-29T09:19:30.615Z,52.67
2022-11-29T09:21:57.189Z,50.37
2022-11-29T09:24:23.776Z,49.40
2022-11-29T09:26:50.717Z,45.43
2022-11-29T09:29:17.291Z,45.07
2022-11-29T09:31:45.445Z,45.27
2022-11-29T09:34:15.665Z,45.97
2022-11-29T09:36:44.204Z,45.60
2022-11-29T09:39:12.487Z,45.10
2022-11-29T09:41:45.571Z,41.83
2022-11-29T09:44:17.351Z,46.77
2022-11-29T09:46:58.749Z,41.17
2022-11-29T09:49:31.510Z,42.03
2022-11-29T09:52:16.906Z,40.40
2022-11-29T09:55:01.853Z,38.30
2022-11-29T09:57:28.753Z,38.17
2022-11-29T09:59:56.967Z,40.27
2022-11-29T10:02:26.582Z,38.67
2022-11-29T10:04:54.144Z,39.83
2022-11-29T10:07:22.055Z,38.30
2022-11-29T10:09:54.694Z,39.27
2022-11-29T10:12:32.307Z,39.00
2022-11-29T10:15:13.277Z,41.17
2022-11-29T10:17:58.563Z,40.87
2022-11-29T10:20:26.056Z,38.83
2022-11-29T10:22:57.275Z,38.87
2022-11-29T10:25:37.627Z,38.33
2022-11-29T10:28:04.407Z,40.40
2022-11-29T10:30:32.180Z,37.03
2022-11-29T10:32:59.049Z,35.73
2022-11-29T10:35:25.635Z,36.37
2022-11-29T10:38:22.695Z,36.90
2022-11-29T10:40:40.379Z,34.40
2022-11-29T10:43:07.061Z,33.47
2022-11-29T10:45:34.747Z,34.70
2022-11-29T10:48:04.336Z,34.43
2022-11-29T10:50:31.596Z,34.40
2022-11-29T10:53:05.577Z,33.23
2022-11-29T10:55:35.073Z,31.97
2022-11-29T10:58:34.396Z,32.47
2022-11-29T11:01:01.657Z,33.63
2022-11-29T11:03:28.282Z,33.87
2022-11-29T11:06:15.239Z,34.33
2022-11-29T11:08:42.911Z,32.00
2022-11-29T11:11:09.491Z,33.30
2022-11-29T11:13:36.141Z,33.10
2022-11-29T11:16:11.904Z,31.97
2022-11-29T11:18:38.593Z,32.87
2022-11-29T11:21:06.334Z,31.03
2022-11-29T11:23:36.394Z,29.47
2022-11-29T11:26:08.918Z,27.60
2022-11-29T11:28:41.577Z,25.83
2022-11-29T11:31:08.794Z,26.33
2022-11-29T11:33:37.055Z,27.00
2022-11-29T11:36:14.184Z,26.70
2022-11-29T11:38:56.848Z,26.47
2022-11-29T11:41:23.339Z,25.03
2022-11-29T11:43:54.830Z,23.97
2022-11-29T11:46:21.469Z,26.03
2022-11-29T11:48:47.954Z,23.40
2022-11-29T11:51:24.747Z,23.17
2022-11-29T11:53:52.196Z,24.20
2022-11-29T11:56:18.946Z,22.43
2022-11-29T11:58:47.422Z,24.13
2022-11-29T12:01:15.280Z,25.83
2022-11-29T12:04:02.150Z,26.07
2022-11-29T12:06:28.811Z,23.97
2022-11-29T12:09:02.710Z,25.00
2022-11-29T12:11:31.091Z,23.80
2022-11-29T12:13:57.731Z,23.17
2022-11-29T12:16:29.341Z,24.00
2022-11-29T12:19:25.267Z,25.20
2022-11-29T12:21:53.162Z,23.60
2022-11-29T12:24:31.096Z,23.03
2022-11-29T12:26:59.175Z,20.57
2022-11-29T12:29:26.206Z,20.20
2022-11-29T12:32:11.569Z,21.63
2022-11-29T12:34:43.403Z,22.07
2022-11-29T12:37:45.624Z,21.67
2022-11-29T12:40:12.130Z,22.30
2022-11-29T12:42:41.271Z,21.73
2022-11-29T12:45:24.220Z,20.93
2022-11-29T12:47:53.519Z,23.17
2022-11-29T12:50:30.154Z,24.20
2022-11-29T12:53:01.688Z,24.23
2022-11-29T12:55:41.756Z,27.40
2022-11-29T12:58:14.684Z,27.00
2022-11-29T13:00:46.957Z,26.97
2022-11-29T13:03:19.713Z,28.67
2022-11-29T13:05:55.475Z,29.37
2022-11-29T13:08:27.969Z,30.73
2022-11-29T13:10:54.546Z,33.00
2022-11-29T13:13:39.301Z,30.77
2022-11-29T13:16:05.839Z,29.80
2022-11-29T13:18:35.391Z,29.37
2022-11-29T13:21:06.587Z,27.57
2022-11-29T13:24:07.366Z,30.03
2022-11-29T13:26:25.311Z,28.50
2022-11-29T13:28:52.015Z,29.13
2022-11-29T13:31:19.714Z,27.97
2022-11-29T13:33:46.262Z,27.40
2022-11-29T13:36:12.687Z,27.87
2022-11-29T13:38:48.609Z,30.13
2022-11-29T13:41:28.082Z,27.67
2022-11-29T13:43:57.947Z,27.37
2022-11-29T13:46:27.435Z,28.87
2022-11-29T13:48:54.146Z,27.50
2022-11-29T13:51:25.335Z,27.40
2022-11-29T13:53:51.946Z,27.37
2022-11-29T13:56:32.911Z,28.40
2022-11-29T13:59:01.107Z,27.47
2022-11-29T14:01:27.767Z,28.77
2022-11-29T14:04:07.232Z,28.97
2022-11-29T14:06:37.572Z,26.13
2022-11-29T14:09:19.450Z,25.90
2022-11-29T14:11:50.189Z,25.43
2022-11-29T14:14:16.771Z,26.43
2022-11-29T14:16:43.188Z,26.43
2022-11-29T14:19:10.049Z,26.60
2022-11-29T14:21:55.442Z,27.40
2022-11-29T14:24:37.467Z,27.87
2022-11-29T14:27:07.031Z,28.77
2022-11-29T14:29:55.324Z,29.03
2022-11-29T14:32:26.512Z,29.37
2022-11-29T14:35:04.114Z,27.87
2022-11-29T14:37:33.765Z,24.90
2022-11-29T14:40:01.136Z,26.67
2022-11-29T14:42:27.712Z,27.77
2022-11-29T14:45:06.435Z,26.40
2022-11-29T14:47:37.285Z,26.90
2022-11-29T14:50:06.667Z,28.93
2022-11-29T14:52:37.882Z,28.90
2022-11-29T14:55:06.149Z,28.30
2022-11-29T14:57:48.182Z,29.40
2022-11-29T15:00:15.868Z,27.13
2022-11-29T15:02:44.612Z,26.70
2022-11-29T15:05:29.885Z,26.00
2022-11-29T15:08:15.026Z,27.00
2022-11-29T15:10:42.876Z,26.73
2022-11-29T15:13:11.280Z,30.63
2022-11-29T15:15:40.831Z,31.27
2022-11-29T15:18:30.577Z,30.93
2022-11-29T15:21:00.096Z,31.13
2022-11-29T15:23:26.576Z,31.03
2022-11-29T15:25:54.049Z,31.30
2022-11-29T15:28:24.211Z,34.50
2022-11-29T15:30:51.299Z,35.80
2022-11-29T15:33:24.480Z,35.23
2022-11-29T15:35:51.926Z,36.63
2022-11-29T15:38:21.923Z,39.20
2022-11-29T15:40:55.153Z,37.37
2022-11-29T15:43:25.785Z,36.03
2022-11-29T15:45:54.155Z,36.97
2022-11-29T15:48:21.821Z,36.27
2022-11-29T15:50:48.430Z,36.33
2022-11-29T15:53:30.269Z,37.90
2022-11-29T15:55:56.988Z,36.40
2022-11-29T15:58:23.899Z,37.80
2022-11-29T16:00:50.584Z,34.77
2022-11-29T16:03:19.069Z,34.03
2022-11-29T16:05:47.592Z,35.70
2022-11-29T16:08:14.573Z,35.80
2022-11-29T16:10:43.623Z,33.60
2022-11-29T16:13:25.335Z,33.90
2022-11-29T16:16:03.644Z,34.10
2022-11-29T16:18:30.269Z,36.27
2022-11-29T16:21:00.412Z,36.23
2022-11-29T16:23:36.921Z,36.63
2022-11-29T16:26:12.581Z,39.97
2022-11-29T16:28:43.390Z,38.47
2022-11-29T16:31:13.621Z,37.27
2022-11-29T16:33:44.243Z,38.20
2022-11-29T16:36:14.887Z,38.57
2022-11-29T16:38:48.715Z,38.77
2022-11-29T16:41:22.619Z,40.50
2022-11-29T16:43:54.221Z,39.97
2022-11-29T16:46:20.916Z,38.57
2022-11-29T16:48:49.231Z,38.17
2022-11-29T16:51:16.311Z,41.03
2022-11-29T16:53:43.454Z,41.03
2022-11-29T16:56:13.558Z,39.40
2022-11-29T16:59:17.189Z,37.43
2022-11-29T17:01:27.977Z,40.40
2022-11-29T17:03:55.790Z,41.83
2022-11-29T17:06:22.969Z,38.33
2022-11-29T17:08:50.019Z,35.90
2022-11-29T17:11:16.632Z,35.30
2022-11-29T17:13:43.140Z,35.83
2022-11-29T17:16:12.966Z,35.90
2022-11-29T17:18:41.301Z,33.90
2022-11-29T17:21:15.717Z,34.40
2022-11-29T17:23:42.242Z,33.13
2022-11-29T17:26:08.895Z,33.03
2022-11-29T17:28:35.451Z,31.17
2022-11-29T17:31:08.981Z,27.83
2022-11-29T17:33:35.473Z,27.43
2022-11-29T17:36:06.007Z,27.73
2022-11-29T17:38:32.600Z,28.43
2022-11-29T17:40:59.259Z,29.60
2022-11-29T17:43:25.873Z,29.50
2022-11-29T17:45:52.602Z,31.00
2022-11-29T17:48:19.198Z,31.20
2022-11-29T17:50:45.687Z,31.90
2022-11-29T17:53:12.192Z,31.07
2022-11-29T17:55:39.847Z,33.20
2022-11-29T17:58:06.361Z,32.13
2022-11-29T18:00:32.881Z,31.50
2022-11-29T18:02:59.309Z,31.20
2022-11-29T18:05:30.131Z,33.33
2022-11-29T18:07:59.565Z,30.73
2022-11-29T18:10:26.687Z,32.13
2022-11-29T18:12:53.163Z,33.17
2022-11-29T18:15:19.691Z,31.00
2022-11-29T18:17:46.186Z,32.50
2022-11-29T18:20:14.257Z,29.57
2022-11-29T18:22:40.724Z,28.43
2022-11-29T18:25:36.854Z,27.70
2022-11-29T18:27:53.908Z,31.80
2022-11-29T18:30:20.459Z,28.60
2022-11-29T18:32:46.973Z,26.00
2022-11-29T18:35:13.854Z,28.47
2022-11-29T18:38:13.468Z,26.27
2022-11-29T18:40:26.854Z,25.47
2022-11-29T18:42:53.384Z,27.83
2022-11-29T18:45:19.883Z,29.00
2022-11-29T18:47:46.346Z,28.13
2022-11-29T18:50:12.810Z,30.23
2022-11-29T18:52:40.892Z,30.47
2022-11-29T18:55:07.663Z,31.00
2022-11-29T18:57:34.229Z,31.63
2022-11-29T19:00:00.688Z,32.03
2022-11-29T19:02:27.164Z,32.80
2022-11-29T19:04:53.745Z,33.40
2022-11-29T19:07:20.289Z,33.17
2022-11-29T19:09:46.782Z,30.80
2022-11-29T19:12:13.265Z,32.93
2022-11-29T19:14:41.813Z,29.40
2022-11-29T19:17:11.580Z,32.83
2022-11-29T19:19:38.291Z,30.10
2022-11-29T19:22:04.862Z,29.20
2022-11-29T19:24:31.287Z,30.33
2022-11-29T19:26:58.202Z,31.00
2022-11-29T19:29:24.840Z,30.73
2022-11-29T19:31:51.374Z,30.90
2022-11-29T19:34:17.806Z,31.00
2022-11-29T19:36:45.139Z,30.27
2022-11-29T19:39:12.995Z,27.83
2022-11-29T19:41:39.603Z,29.57
2022-11-29T19:44:06.869Z,31.60
2022-11-29T19:46:34.248Z,28.90
2022-11-29T19:49:00.806Z,30.83
2022-11-29T19:51:27.561Z,30.60
2022-11-29T19:53:54.406Z,31.27
2022-11-29T19:56:20.993Z,33.40
2022-11-29T19:58:47.465Z,31.43
2022-11-29T20:01:14.639Z,29.30
2022-11-29T20:03:41.261Z,30.70
2022-11-29T20:06:08.007Z,30.07
2022-11-29T20:08:34.613Z,32.53
2022-11-29T20:11:04.774Z,34.23
2022-11-29T20:13:31.255Z,32.70
2022-11-29T20:16:02.048Z,32.27
2022-11-29T20:18:32.443Z,32.60
2022-11-29T20:21:12.646Z,31.57
2022-11-29T20:23:39.514Z,33.30
2022-11-29T20:26:08.141Z,33.47
2022-11-29T20:28:35.037Z,31.40
2022-11-29T20:31:08.089Z,32.93
2022-11-29T20:33:34.785Z,33.67
2022-11-29T20:36:06.871Z,32.17
2022-11-29T20:38:36.589Z,31.67
2022-11-29T20:41:19.521Z,28.07
2022-11-29T20:43:59.211Z,26.83
2022-11-29T20:46:26.252Z,30.13
2022-11-29T20:48:53.471Z,32.37
2022-11-29T20:51:21.523Z,29.77
2022-11-29T20:53:48.611Z,30.23
2022-11-29T20:56:15.084Z,29.00
2022-11-29T20:58:41.646Z,29.80
2022-11-29T21:01:08.264Z,29.20
2022-11-29T21:03:34.888Z,29.83
2022-11-29T21:06:01.680Z,29.17
2022-11-29T21:08:28.153Z,30.87
2022-11-29T21:10:55.198Z,31.63
2022-11-29T21:13:22.114Z,31.23
2022-11-29T21:15:48.879Z,30.23
2022-11-29T21:18:22.697Z,28.47
2022-11-29T21:21:07.917Z,29.70
2022-11-29T21:23:53.887Z,27.77
2022-11-29T21:26:25.343Z,30.50
2022-11-29T21:28:59.992Z,29.33
2022-11-29T21:31:26.771Z,29.03
2022-11-29T21:33:53.452Z,29.40
2022-11-29T21:36:19.954Z,31.40
2022-11-29T21:38:50.894Z,27.87
2022-11-29T21:41:20.557Z,30.53
2022-11-29T21:46:33.589Z,29.23
2022-11-29T21:49:00.129Z,28.57
2022-11-29T21:51:26.608Z,29.37
2022-11-29T21:53:53.197Z,31.03
2022-11-29T21:56:19.713Z,28.57
2022-11-29T21:58:46.223Z,30.10
2022-11-29T22:01:14.093Z,28.70
2022-11-29T22:03:40.740Z,28.43
2022-11-29T22:06:08.223Z,27.40
2022-11-29T22:08:35.584Z,29.27
2022-11-29T22:11:02.936Z,28.23
2022-11-29T22:13:29.462Z,27.83
2022-11-29T22:16:09.498Z,29.47
2022-11-29T22:18:36.325Z,29.53
2022-11-29T22:21:06.795Z,29.37
2022-11-29T22:23:33.630Z,28.87
2022-11-29T22:26:04.055Z,28.27
2022-11-29T22:28:30.567Z,28.20
2022-11-29T22:31:15.070Z,24.20
2022-11-29T22:33:41.604Z,24.80
2022-11-29T22:36:09.137Z,23.93
2022-11-29T22:38:36.009Z,25.70
2022-11-29T22:41:03.659Z,26.60
2022-11-29T22:43:30.337Z,28.73
2022-11-29T22:46:03.490Z,27.33
2022-11-29T22:48:33.053Z,27.00
2022-11-29T22:51:04.254Z,27.17
2022-11-29T22:53:30.807Z,26.77
2022-11-29T22:56:00.758Z,26.10
2022-11-29T22:58:27.318Z,27.77
2022-11-29T23:00:54.251Z,29.00
2022-11-29T23:03:20.810Z,29.53
2022-11-29T23:05:48.605Z,25.80
2022-11-29T23:08:15.115Z,29.60
2022-11-29T23:10:41.623Z,26.27
2022-11-29T23:13:08.049Z,27.77
2022-11-29T23:15:34.518Z,27.23
2022-11-29T23:18:01.006Z,27.73
2022-11-29T23:20:27.509Z,27.87
2022-11-29T23:22:54.237Z,28.17
2022-11-29T23:25:20.667Z,26.80
2022-11-29T23:27:47.193Z,25.93
2022-11-29T23:30:13.957Z,27.13
2022-11-29T23:32:40.498Z,26.47
2022-11-29T23:35:07.071Z,24.77
2022-11-29T23:37:33.565Z,26.27
2022-11-29T23:40:00.027Z,25.43
2022-11-29T23:42:26.506Z,27.80
2022-11-29T23:44:53.032Z,28.63
2022-11-29T23:47:19.550Z,25.87
2022-11-29T23:49:46.011Z,26.57
2022-11-29T23:52:12.509Z,26.70
2022-11-29T23:54:38.950Z,26.57
2022-11-29T23:57:05.430Z,27.33
2022-11-29T23:59:31.915Z,26.47
